Time;durP1;ratioP1;P1;durP2;ratioP2;P2;SDS_P1;SDS_P2;PMS_P1;PMS_P2;Temp;Humidity;BMP_temperature;BMP_pressure;BME280_temperature;BME280_humidity;BME280_pressure;Samples;Min_cycle;Max_cycle;Signal;HPM_P1;HPM_P2
2022/08/13 00:01:40;;;;;;;2.97;2.00;;;20.30;80.60;;;;;;5111199;28;20118;-82
2022/08/13 00:04:07;;;;;;;;;;;20.30;80.70;;;;;;5112615;28;20120;-82
2022/08/13 00:09:09;;;;;;;3.15;1.90;;;20.10;81.50;;;;;;5112776;28;20061;-82
2022/08/13 00:14:22;;;;;;;4.57;1.92;;;20.10;82.30;;;;;;5113730;28;20034;-80
2022/08/13 00:16:49;;;;;;;2.35;2.08;;;20.10;82.70;;;;;;5113909;28;20031;-81
2022/08/13 00:19:16;;;;;;;4.03;2.20;;;20.00;82.70;;;;;;5114953;28;20034;-81
2022/08/13 00:21:41;;;;;;;2.60;1.88;;;20.00;82.90;;;;;;5110370;28;20032;-83
2022/08/13 00:24:07;;;;;;;2.45;2.15;;;20.00;83.20;;;;;;5111010;28;20039;-82
2022/08/13 00:26:33;;;;;;;4.38;2.45;;;19.90;83.60;;;;;;5113333;28;20076;-81
2022/08/13 00:29:00;;;;;;;2.45;2.00;;;19.90;84.00;;;;;;5118217;27;20087;-81
2022/08/13 00:31:26;;;;;;;3.33;2.13;;;19.90;84.40;;;;;;5117669;27;20027;-82
2022/08/13 00:33:52;;;;;;;2.85;2.00;;;19.80;84.50;;;;;;5117785;27;20076;-80
2022/08/13 00:36:18;;;;;;;2.90;1.48;;;19.80;84.90;;;;;;5117231;27;20036;-80
2022/08/13 00:38:45;;;;;;;4.38;2.00;;;19.80;85.40;;;;;;5117703;27;20032;-80
2022/08/13 00:43:57;;;;;;;3.67;2.13;;;19.80;86.30;;;;;;5118073;28;20034;-81
2022/08/13 00:46:22;;;;;;;2.65;1.90;;;19.80;86.70;;;;;;5117426;27;20469;-82
2022/08/13 00:48:49;;;;;;;7.22;2.13;;;19.80;86.90;;;;;;5117487;27;20023;-81
2022/08/13 00:51:16;;;;;;;2.83;2.00;;;19.70;87.10;;;;;;5115910;27;20019;-81
2022/08/13 00:53:43;;;;;;;3.05;2.10;;;19.70;87.20;;;;;;5118011;27;20088;-80
2022/08/13 00:56:10;;;;;;;3.53;2.22;;;19.70;87.50;;;;;;5117160;27;20027;-80
2022/08/13 00:58:37;;;;;;;5.35;2.00;;;19.70;87.80;;;;;;5116376;28;20030;-80
2022/08/13 01:01:05;;;;;;;2.78;1.60;;;19.60;87.90;;;;;;5115869;28;20027;-80
2022/08/13 01:03:34;;;;;;;4.82;2.38;;;19.60;88.20;;;;;;5116088;28;20030;-79
2022/08/13 01:06:01;;;;;;;2.35;2.00;;;19.60;88.50;;;;;;5115440;28;20401;-81
2022/08/13 01:08:32;;;;;;;2.80;1.92;;;19.50;88.80;;;;;;5117235;27;20601;-81
2022/08/13 01:11:07;;;;;;;3.83;2.17;;;19.50;89.10;;;;;;5117361;27;20486;-80
2022/08/13 01:13:34;;;;;;;3.08;2.40;;;19.40;89.80;;;;;;5117100;27;20059;-80
2022/08/13 01:16:02;;;;;;;2.95;2.35;;;19.40;90.10;;;;;;5116884;27;20110;-81
2022/08/13 01:18:29;;;;;;;4.70;2.30;;;19.30;90.20;;;;;;5115775;28;20096;-81
2022/08/13 01:21:08;;;;;;;3.03;2.30;;;19.30;90.40;;;;;;5115476;28;20362;-82
2022/08/13 01:23:34;;;;;;;5.07;2.17;;;19.30;90.50;;;;;;5117192;27;20071;-81
2022/08/13 01:26:00;;;;;;;3.03;2.35;;;19.30;90.70;;;;;;5116650;27;20067;-80
2022/08/13 01:28:27;;;;;;;4.07;2.60;;;19.20;91.10;;;;;;5117386;28;20493;-80
2022/08/13 01:30:54;;;;;;;3.72;2.10;;;19.20;90.90;;;;;;5117022;27;20394;-79
2022/08/13 01:33:21;;;;;;;3.28;2.03;;;19.10;91.10;;;;;;5115704;28;20465;-80
2022/08/13 01:35:48;;;;;;;3.75;2.38;;;19.10;91.20;;;;;;5116380;27;20477;-80
2022/08/13 01:38:15;;;;;;;3.67;1.83;;;19.10;91.30;;;;;;5114903;28;20107;-79
2022/08/13 01:40:41;;;;;;;2.33;1.92;;;19.10;91.30;;;;;;5113611;28;20042;-79
2022/08/13 01:43:07;;;;;;;3.08;2.30;;;19.10;91.40;;;;;;5114040;28;20389;-80
2022/08/13 01:45:34;;;;;;;2.85;1.75;;;19.00;91.40;;;;;;5113592;28;20035;-80
2022/08/13 01:50:43;;;;;;;2.42;1.90;;;18.90;91.50;;;;;;5113898;28;20042;-79
2022/08/13 01:53:12;;;;;;;4.13;2.38;;;18.90;91.60;;;;;;5113772;28;20028;-79
2022/08/13 01:55:43;;;;;;;4.03;2.30;;;18.90;91.80;;;;;;5113113;28;20027;-80
2022/08/13 01:58:12;;;;;;;3.03;2.33;;;18.90;92.00;;;;;;5113743;28;20028;-80
2022/08/13 02:00:41;;;;;;;2.60;2.17;;;18.80;92.10;;;;;;5113228;28;20137;-80
2022/08/13 02:03:09;;;;;;;3.15;2.30;;;18.80;92.20;;;;;;5113480;28;20047;-80
2022/08/13 02:05:36;;;;;;;3.13;2.03;;;18.80;92.20;;;;;;5111715;28;20035;-80
2022/08/13 02:08:02;;;;;;;3.80;2.05;;;18.70;92.40;;;;;;5113543;28;20055;-81
2022/08/13 02:10:28;;;;;;;4.00;2.42;;;18.70;92.60;;;;;;5113331;28;20051;-81
2022/08/13 02:12:53;;;;;;;5.03;2.22;;;18.70;92.60;;;;;;5111803;28;20080;-81
2022/08/13 02:15:19;;;;;;;4.72;2.20;;;18.70;92.60;;;;;;5111535;28;20029;-81
2022/08/13 02:17:45;;;;;;;3.25;2.10;;;18.70;92.60;;;;;;5112832;28;20485;-82
2022/08/13 02:20:17;;;;;;;3.28;2.20;;;18.70;92.70;;;;;;5113646;28;20156;-81
2022/08/13 02:22:47;;;;;;;3.28;2.55;;;18.70;92.70;;;;;;5113023;28;20028;-81
2022/08/13 02:25:15;;;;;;;2.33;2.13;;;18.60;92.70;;;;;;5114322;28;20035;-80
2022/08/13 02:27:41;;;;;;;5.00;2.15;;;18.60;92.70;;;;;;5113395;27;20032;-81
2022/08/13 02:30:09;;;;;;;2.35;2.15;;;18.60;92.80;;;;;;5114053;28;20055;-81
2022/08/13 02:32:36;;;;;;;4.60;2.58;;;18.60;92.80;;;;;;5113305;28;20024;-81
2022/08/13 02:35:04;;;;;;;4.70;2.50;;;18.60;92.90;;;;;;5113827;28;20024;-81
2022/08/13 02:37:32;;;;;;;4.85;2.47;;;18.60;93.00;;;;;;5111772;28;20046;-79
2022/08/13 02:39:58;;;;;;;7.80;2.40;;;18.50;93.00;;;;;;5113290;28;20027;-80
2022/08/13 02:42:28;;;;;;;3.15;2.60;;;18.50;93.00;;;;;;5112780;28;20035;-78
2022/08/13 02:44:54;;;;;;;3.10;2.40;;;18.50;93.00;;;;;;5111850;28;20062;-79
2022/08/13 02:47:21;;;;;;;4.75;2.35;;;18.50;93.10;;;;;;5113405;28;20055;-80
2022/08/13 02:49:51;;;;;;;5.07;2.20;;;18.50;93.10;;;;;;5113097;28;20099;-81
2022/08/13 02:52:17;;;;;;;6.22;2.53;;;18.50;93.10;;;;;;5112577;28;20027;-81
2022/08/13 02:54:46;;;;;;;4.95;2.33;;;18.50;93.20;;;;;;5113088;28;20582;-81
2022/08/13 02:57:12;;;;;;;3.33;2.53;;;18.40;93.20;;;;;;5112418;27;20103;-79
2022/08/13 02:59:37;;;;;;;4.45;2.60;;;18.40;93.20;;;;;;5112642;28;20714;-80
2022/08/13 03:02:04;;;;;;;3.03;2.72;;;18.40;93.30;;;;;;5112112;28;20088;-80
2022/08/13 03:04:30;;;;;;;2.78;2.47;;;18.30;93.40;;;;;;5112808;28;20028;-80
2022/08/13 03:06:56;;;;;;;3.45;2.53;;;18.30;93.40;;;;;;5112109;28;20028;-81
2022/08/13 03:09:22;;;;;;;4.10;2.67;;;18.30;93.50;;;;;;5112369;27;20027;-81
2022/08/13 03:11:49;;;;;;;3.20;2.38;;;18.20;93.60;;;;;;5112365;28;20023;-81
2022/08/13 03:14:17;;;;;;;2.88;2.30;;;18.20;93.80;;;;;;5112685;28;20016;-81
2022/08/13 03:16:42;;;;;;;3.85;2.60;;;18.20;94.00;;;;;;5111957;28;20078;-80
2022/08/13 03:19:08;;;;;;;3.53;2.10;;;18.10;94.00;;;;;;5112170;28;20641;-81
2022/08/13 03:21:37;;;;;;;2.78;2.28;;;18.10;94.10;;;;;;5111680;28;20036;-81
2022/08/13 03:24:04;;;;;;;3.20;2.63;;;18.10;94.20;;;;;;5111964;28;20389;-81
2022/08/13 03:26:33;;;;;;;4.75;2.38;;;18.10;94.40;;;;;;5111644;28;20035;-81
2022/08/13 03:29:00;;;;;;;11.93;2.63;;;18.10;94.40;;;;;;5112506;28;20027;-82
2022/08/13 03:31:27;;;;;;;3.55;2.55;;;18.00;94.40;;;;;;5113360;28;20097;-81
2022/08/13 03:33:53;;;;;;;4.63;2.92;;;18.00;94.50;;;;;;5116120;28;20076;-79
2022/08/13 03:36:20;;;;;;;3.15;2.55;;;18.00;94.50;;;;;;5113817;28;20027;-80
2022/08/13 03:38:46;;;;;;;3.33;3.03;;;18.00;94.60;;;;;;5111504;28;20028;-81
2022/08/13 03:41:14;;;;;;;6.78;2.55;;;17.90;94.70;;;;;;5111212;28;20425;-81
2022/08/13 03:43:42;;;;;;;3.70;3.25;;;17.90;94.70;;;;;;5110984;28;20864;-80
2022/08/13 03:46:09;;;;;;;3.45;2.80;;;17.90;94.80;;;;;;5111267;28;20062;-81
2022/08/13 03:48:36;;;;;;;4.78;2.65;;;17.90;94.70;;;;;;5111181;28;20019;-80
2022/08/13 03:51:03;;;;;;;3.58;2.60;;;17.90;94.80;;;;;;5111129;28;20046;-81
2022/08/13 03:53:29;;;;;;;4.68;2.60;;;17.90;94.70;;;;;;5111030;28;20474;-82
2022/08/13 03:55:58;;;;;;;3.97;2.70;;;17.90;94.80;;;;;;5110815;28;20062;-80
2022/08/13 03:58:26;;;;;;;4.88;2.75;;;17.90;94.80;;;;;;5111205;28;20027;-81
2022/08/13 04:00:52;;;;;;;4.28;3.00;;;17.90;94.90;;;;;;5110310;28;20038;-82
2022/08/13 04:03:23;;;;;;;4.10;3.05;;;17.80;94.90;;;;;;5110998;28;20435;-80
2022/08/13 04:05:58;;;;;;;3.15;2.85;;;17.90;94.90;;;;;;5108879;28;20042;-80
2022/08/13 04:08:29;;;;;;;5.40;2.45;;;17.80;94.90;;;;;;5110663;28;20429;-81
2022/08/13 04:10:55;;;;;;;3.85;2.80;;;17.80;95.00;;;;;;5110203;28;20027;-82
2022/08/13 04:13:24;;;;;;;3.88;2.83;;;17.80;95.00;;;;;;5111011;28;20452;-81
2022/08/13 04:15:50;;;;;;;3.13;2.83;;;17.80;95.10;;;;;;5108803;28;20051;-81
2022/08/13 04:18:16;;;;;;;2.72;2.33;;;17.80;95.10;;;;;;5110803;28;20044;-81
2022/08/13 04:20:43;;;;;;;3.78;3.10;;;17.80;95.10;;;;;;5110547;28;20126;-79
2022/08/13 04:23:16;;;;;;;4.70;3.10;;;17.70;95.10;;;;;;5110865;28;20040;-80
2022/08/13 04:25:46;;;;;;;4.60;3.22;;;17.80;95.20;;;;;;5108748;28;20023;-79
2022/08/13 04:28:14;;;;;;;5.03;3.50;;;17.80;95.20;;;;;;5111002;28;20110;-80
2022/08/13 04:30:41;;;;;;;6.25;3.40;;;17.80;95.20;;;;;;5108866;28;20076;-80
2022/08/13 04:33:11;;;;;;;3.50;2.90;;;17.80;95.30;;;;;;5109187;28;20480;-80
2022/08/13 04:35:38;;;;;;;3.83;2.95;;;17.80;95.30;;;;;;5109890;28;20031;-80
2022/08/13 04:38:07;;;;;;;11.73;3.83;;;17.80;95.30;;;;;;5109556;28;20028;-80
2022/08/13 04:40:35;;;;;;;3.05;2.33;;;17.80;95.20;;;;;;5110909;28;20449;-80
2022/08/13 04:43:01;;;;;;;6.82;3.00;;;17.80;95.30;;;;;;5111008;28;20059;-80
2022/08/13 04:45:28;;;;;;;4.32;3.33;;;17.80;95.30;;;;;;5110047;28;20024;-80
2022/08/13 04:47:58;;;;;;;4.40;2.95;;;17.80;95.30;;;;;;5110799;28;20115;-81
2022/08/13 04:50:25;;;;;;;4.70;2.63;;;17.80;95.50;;;;;;5110996;28;20067;-81
2022/08/13 04:52:51;;;;;;;7.00;3.25;;;17.80;95.50;;;;;;5110837;28;20020;-81
2022/08/13 04:55:17;;;;;;;4.15;3.20;;;17.80;95.50;;;;;;5109550;28;20431;-82
2022/08/13 04:57:43;;;;;;;5.10;2.60;;;17.80;95.50;;;;;;5109525;28;20027;-80
2022/08/13 05:00:10;;;;;;;6.43;3.17;;;17.80;95.40;;;;;;5110922;28;20057;-81
2022/08/13 05:02:39;;;;;;;6.68;2.83;;;17.90;95.20;;;;;;5110128;28;20028;-81
2022/08/13 05:05:06;;;;;;;8.25;2.80;;;18.00;95.30;;;;;;5111061;28;20092;-81
2022/08/13 05:07:32;;;;;;;3.35;2.60;;;18.10;95.30;;;;;;5110447;28;20480;-80
2022/08/13 05:09:58;;;;;;;3.85;2.55;;;18.10;95.20;;;;;;5110651;28;20035;-81
2022/08/13 05:12:24;;;;;;;4.07;2.80;;;18.20;95.10;;;;;;5109999;28;20080;-80
2022/08/13 05:14:49;;;;;;;3.33;2.78;;;18.30;95.00;;;;;;5113561;28;20023;-80
2022/08/13 05:17:15;;;;;;;3.97;2.72;;;18.30;94.90;;;;;;5112469;28;20450;-81
2022/08/13 05:19:41;;;;;;;2.70;2.50;;;18.40;94.90;;;;;;5114149;28;20031;-81
2022/08/13 05:22:07;;;;;;;6.18;3.50;;;18.50;94.80;;;;;;5114136;28;20038;-82
2022/08/13 05:24:37;;;;;;;4.03;3.30;;;18.50;94.70;;;;;;5114217;28;20028;-80
2022/08/13 05:27:03;;;;;;;12.63;3.30;;;18.60;94.70;;;;;;5113923;28;20069;-80
2022/08/13 05:29:29;;;;;;;3.00;2.70;;;18.70;94.80;;;;;;5114044;28;20016;-80
2022/08/13 05:31:56;;;;;;;6.68;3.00;;;18.70;94.80;;;;;;5113996;28;20111;-82
2022/08/13 05:34:23;;;;;;;7.38;3.58;;;18.80;94.80;;;;;;5112896;28;20027;-81
2022/08/13 05:36:48;;;;;;;3.50;2.70;;;18.80;94.70;;;;;;5113360;27;20028;-81
2022/08/13 05:39:14;;;;;;;4.85;3.20;;;18.80;94.80;;;;;;5113690;28;20043;-81
2022/08/13 05:41:41;;;;;;;5.72;2.70;;;18.70;95.10;;;;;;5112409;28;20081;-81
2022/08/13 05:44:09;;;;;;;3.67;2.53;;;18.70;95.20;;;;;;5114287;28;20067;-81
2022/08/13 05:46:34;;;;;;;3.85;3.13;;;18.80;94.90;;;;;;5113526;28;20228;-81
2022/08/13 05:49:00;;;;;;;7.20;3.50;;;18.80;94.80;;;;;;5112839;28;20710;-81
2022/08/13 05:51:31;;;;;;;3.15;2.78;;;19.00;94.60;;;;;;5112050;28;20028;-81
2022/08/13 05:53:59;;;;;;;4.85;2.97;;;19.00;94.30;;;;;;5113785;28;20028;-81
2022/08/13 05:56:26;;;;;;;3.53;2.92;;;19.10;94.40;;;;;;5113161;28;20689;-80
2022/08/13 05:58:51;;;;;;;5.15;2.80;;;19.20;94.40;;;;;;5113381;28;20028;-81
2022/08/13 06:04:13;;;;;;;3.17;2.83;;;19.30;94.10;;;;;;5113724;28;20070;-80
2022/08/13 06:06:39;;;;;;;7.65;3.78;;;19.40;94.00;;;;;;5112768;28;20081;-80
2022/08/13 06:09:06;;;;;;;3.25;2.92;;;19.50;93.90;;;;;;5114048;28;20101;-81
2022/08/13 06:11:31;;;;;;;6.50;3.08;;;19.50;93.90;;;;;;5111688;28;20412;-81
2022/08/13 06:13:57;;;;;;;7.22;3.30;;;19.50;93.80;;;;;;5113732;28;20024;-81
2022/08/13 06:16:28;;;;;;;6.70;3.17;;;19.60;94.00;;;;;;5112832;28;20503;-82
2022/08/13 06:18:57;;;;;;;3.63;2.38;;;19.80;93.70;;;;;;5113484;28;20028;-82
2022/08/13 06:21:23;;;;;;;3.35;3.00;;;19.90;93.70;;;;;;5112870;28;20443;-81
2022/08/13 06:23:50;;;;;;;4.80;2.97;;;20.00;93.60;;;;;;5111309;28;20046;-82
2022/08/13 06:26:19;;;;;;;3.30;2.55;;;20.10;93.70;;;;;;5112449;28;20407;-81
2022/08/13 06:28:46;;;;;;;6.20;3.20;;;20.20;93.40;;;;;;5113410;28;20038;-82
2022/08/13 06:31:16;;;;;;;4.18;2.83;;;20.30;93.10;;;;;;5113197;28;20081;-81
2022/08/13 06:33:43;;;;;;;3.42;2.95;;;20.30;93.20;;;;;;5113467;28;20032;-81
2022/08/13 06:36:15;;;;;;;4.57;2.90;;;20.50;93.20;;;;;;5112462;28;20038;-81
2022/08/13 06:38:43;;;;;;;3.20;2.90;;;20.60;93.00;;;;;;5113149;28;20031;-82
2022/08/13 06:41:10;;;;;;;2.45;2.20;;;20.70;92.50;;;;;;5112725;28;20046;-82
2022/08/13 06:43:41;;;;;;;3.05;2.75;;;20.80;92.60;;;;;;5112695;28;20063;-82
2022/08/13 06:46:09;;;;;;;4.60;3.10;;;20.90;92.30;;;;;;5113225;28;20412;-80
2022/08/13 06:48:35;;;;;;;4.32;2.75;;;21.00;92.30;;;;;;5112713;28;20470;-81
2022/08/13 06:51:05;;;;;;;2.88;2.50;;;21.10;92.40;;;;;;5119482;28;20028;-80
2022/08/13 06:53:32;;;;;;;4.47;2.75;;;21.20;92.40;;;;;;5118548;28;20051;-82
2022/08/13 06:55:58;;;;;;;4.30;3.30;;;21.20;91.90;;;;;;5112029;28;20131;-81
2022/08/13 06:58:28;;;;;;;3.05;2.40;;;21.30;91.90;;;;;;5112700;28;20486;-81
2022/08/13 07:00:55;;;;;;;5.35;2.63;;;21.40;91.80;;;;;;5111992;28;20134;-81
2022/08/13 07:03:25;;;;;;;4.40;3.30;;;21.40;91.80;;;;;;5111878;28;20065;-82
2022/08/13 07:05:51;;;;;;;3.75;3.05;;;21.60;91.40;;;;;;5111107;28;20031;-82
2022/08/13 07:08:17;;;;;;;7.85;2.85;;;21.70;91.20;;;;;;5111881;28;20063;-82
2022/08/13 07:10:50;;;;;;;4.47;2.78;;;21.90;91.30;;;;;;5110082;28;20047;-83
2022/08/13 07:13:19;;;;;;;3.63;2.75;;;22.00;91.30;;;;;;5112167;28;20032;-82
2022/08/13 07:15:51;;;;;;;4.55;2.60;;;22.10;91.10;;;;;;5111451;28;20073;-82
2022/08/13 07:18:17;;;;;;;4.18;2.90;;;22.20;90.80;;;;;;5112153;28;20092;-82
2022/08/13 07:20:44;;;;;;;5.93;3.10;;;22.30;90.70;;;;;;5111476;28;20052;-83
2022/08/13 07:23:11;;;;;;;3.47;2.83;;;22.30;90.40;;;;;;5111793;28;20461;-82
2022/08/13 07:25:39;;;;;;;6.30;3.42;;;22.50;90.30;;;;;;5111206;28;20032;-82
2022/08/13 07:28:05;;;;;;;5.93;2.95;;;22.70;90.20;;;;;;5111681;28;20080;-81
2022/08/13 07:30:31;;;;;;;3.45;3.15;;;22.80;90.60;;;;;;5111496;28;20088;-81
2022/08/13 07:32:57;;;;;;;4.38;3.13;;;22.90;90.10;;;;;;5111514;28;20032;-82
2022/08/13 07:35:23;;;;;;;4.18;3.78;;;23.10;90.20;;;;;;5110703;28;20453;-82
2022/08/13 07:37:52;;;;;;;5.22;3.88;;;23.30;90.00;;;;;;5110641;28;20028;-82
2022/08/13 07:40:19;;;;;;;6.20;3.53;;;23.50;89.40;;;;;;5111429;28;20111;-83
2022/08/13 07:42:46;;;;;;;6.43;3.65;;;23.60;88.90;;;;;;5109711;28;20088;-83
2022/08/13 07:45:20;;;;;;;6.97;3.30;;;23.90;88.80;;;;;;5111201;28;20081;-83
2022/08/13 07:47:50;;;;;;;9.60;3.47;;;24.10;88.30;;;;;;5111057;28;20073;-84
2022/08/13 07:50:16;;;;;;;4.90;3.40;;;24.20;87.50;;;;;;5110369;28;20122;-83
2022/08/13 07:52:41;;;;;;;6.13;3.10;;;24.30;89.20;;;;;;5109408;28;20126;-83
2022/08/13 07:55:07;;;;;;;5.43;3.05;;;24.50;88.00;;;;;;5111400;28;20431;-84
2022/08/13 07:57:35;;;;;;;3.35;3.00;;;24.70;86.80;;;;;;5111208;28;20426;-83
2022/08/13 08:00:03;;;;;;;7.50;2.90;;;24.80;86.30;;;;;;5111581;28;20466;-83
2022/08/13 08:02:32;;;;;;;7.80;3.22;;;25.00;86.50;;;;;;5109146;28;20035;-83
2022/08/13 08:04:57;;;;;;;5.57;3.70;;;25.10;86.60;;;;;;5111251;28;20024;-83
2022/08/13 08:07:25;;;;;;;4.43;3.58;;;25.20;85.60;;;;;;5111223;28;20031;-83
2022/08/13 08:09:52;;;;;;;3.92;3.33;;;25.40;84.60;;;;;;5112270;28;20107;-83
2022/08/13 08:12:32;;;;;;;3.72;3.42;;;25.50;86.70;;;;;;5111303;28;20031;-82
2022/08/13 08:14:59;;;;;;;7.00;3.78;;;25.80;86.20;;;;;;5111421;28;20030;-83
2022/08/13 08:17:26;;;;;;;3.67;3.25;;;26.00;83.40;;;;;;5110802;28;20024;-82
2022/08/13 08:19:53;;;;;;;5.68;3.28;;;25.90;83.50;;;;;;5111596;28;20023;-83
2022/08/13 08:22:19;;;;;;;3.85;3.55;;;26.00;83.10;;;;;;5109395;28;20374;-82
2022/08/13 08:24:48;;;;;;;4.30;3.42;;;25.90;83.40;;;;;;5111545;28;20019;-83
2022/08/13 08:27:16;;;;;;;4.50;3.67;;;26.00;83.40;;;;;;5109738;28;20024;-84
2022/08/13 08:29:44;;;;;;;5.80;3.42;;;26.20;84.50;;;;;;5111259;28;20077;-84
2022/08/13 08:32:11;;;;;;;11.00;3.63;;;26.40;83.80;;;;;;5110810;28;20027;-83
2022/08/13 08:34:39;;;;;;;4.53;3.47;;;26.60;83.30;;;;;;5109607;28;20032;-83
2022/08/13 08:37:05;;;;;;;4.72;3.05;;;26.80;80.40;;;;;;5110638;28;20031;-83
2022/08/13 08:42:39;;;;;;;6.00;2.70;;;27.00;82.50;;;;;;5111144;28;20076;-83
2022/08/13 08:45:11;;;;;;;3.10;2.78;;;27.20;81.50;;;;;;5111232;28;20112;-83
2022/08/13 08:47:37;;;;;;;3.55;2.97;;;27.40;78.30;;;;;;5111680;28;20489;-83
2022/08/13 08:50:05;;;;;;;3.40;3.10;;;27.40;78.80;;;;;;5115676;28;20104;-83
2022/08/13 08:55:15;;;;;;;4.15;3.28;;;27.30;78.30;;;;;;5115781;28;20042;-84
2022/08/13 08:57:44;;;;;;;4.75;2.88;;;27.20;78.50;;;;;;5113138;28;20024;-84
2022/08/13 09:00:15;;;;;;;2.97;2.67;;;27.20;79.90;;;;;;5113911;28;20046;-84
2022/08/13 09:02:42;;;;;;;4.03;2.85;;;27.30;79.00;;;;;;5114384;28;20024;-82
2022/08/13 09:05:13;;;;;;;3.33;3.03;;;27.40;78.30;;;;;;5114911;28;20816;-83
2022/08/13 09:07:41;;;;;;;3.28;2.97;;;27.50;80.30;;;;;;5114377;28;20227;-84
2022/08/13 09:10:12;;;;;;;3.28;2.50;;;27.50;78.00;;;;;;5115111;28;20019;-83
2022/08/13 09:12:41;;;;;;;6.68;3.70;;;27.50;78.20;;;;;;5113417;28;20160;-83
2022/08/13 09:15:07;;;;;;;5.65;2.88;;;27.50;78.00;;;;;;5114960;28;20059;-85
2022/08/13 09:17:33;;;;;;;3.30;2.95;;;27.60;78.50;;;;;;5114066;28;20416;-83
2022/08/13 09:19:58;;;;;;;3.30;2.85;;;27.50;78.90;;;;;;5113382;28;20031;-83
2022/08/13 09:22:24;;;;;;;4.32;2.40;;;27.50;77.80;;;;;;5113001;28;20039;-82
2022/08/13 09:24:52;;;;;;;5.30;2.83;;;27.40;78.10;;;;;;5114558;28;20023;-83
2022/08/13 09:27:18;;;;;;;5.10;3.35;;;27.40;78.70;;;;;;5114249;27;20030;-83
2022/08/13 09:29:45;;;;;;;5.35;3.22;;;27.40;78.80;;;;;;5114839;28;20027;-85
2022/08/13 09:32:13;;;;;;;5.25;3.10;;;27.40;78.60;;;;;;5114451;28;20016;-83
2022/08/13 09:34:43;;;;;;;6.60;3.05;;;27.40;79.90;;;;;;5114538;28;20035;-83
2022/08/13 09:37:09;;;;;;;3.03;2.78;;;27.30;79.70;;;;;;5114205;28;20032;-84
2022/08/13 09:39:42;;;;;;;4.82;3.67;;;27.20;80.00;;;;;;5114535;28;20088;-83
2022/08/13 09:42:13;;;;;;;2.97;2.67;;;27.10;79.70;;;;;;5114344;28;20031;-84
2022/08/13 09:44:42;;;;;;;3.60;2.92;;;27.10;79.80;;;;;;5114057;28;20028;-83
2022/08/13 09:47:10;;;;;;;4.82;3.80;;;26.90;80.70;;;;;;5113892;28;20595;-83
2022/08/13 09:49:36;;;;;;;4.10;3.13;;;26.70;81.10;;;;;;5114648;28;20028;-82
2022/08/13 09:52:02;;;;;;;3.65;3.15;;;26.50;81.90;;;;;;5119270;28;20031;-82
2022/08/13 09:54:28;;;;;;;6.45;3.35;;;26.40;82.50;;;;;;5117272;28;20038;-81
2022/08/13 09:56:55;;;;;;;4.57;3.28;;;26.40;82.70;;;;;;5116905;28;20024;-83
2022/08/13 09:59:22;;;;;;;3.58;2.90;;;26.40;82.50;;;;;;5116567;28;20429;-83
2022/08/13 10:01:47;;;;;;;3.40;3.10;;;26.50;84.40;;;;;;5116384;28;20026;-84
2022/08/13 10:04:18;;;;;;;6.28;3.40;;;26.60;83.80;;;;;;5117774;28;20555;-84
2022/08/13 10:06:44;;;;;;;4.50;3.72;;;26.70;83.00;;;;;;5115955;28;20579;-84
2022/08/13 10:09:09;;;;;;;3.55;2.88;;;26.70;82.00;;;;;;5122472;28;20023;-84
2022/08/13 10:11:34;;;;;;;4.03;3.00;;;26.70;81.60;;;;;;5120292;28;20651;-83
2022/08/13 10:14:00;;;;;;;5.15;3.20;;;26.60;81.90;;;;;;5121833;28;20035;-83
2022/08/13 10:16:25;;;;;;;5.13;3.72;;;26.50;81.80;;;;;;5118379;28;20065;-83
2022/08/13 10:18:51;;;;;;;3.58;3.08;;;26.40;81.70;;;;;;5116490;28;20051;-83
2022/08/13 10:21:17;;;;;;;3.70;3.20;;;26.40;82.00;;;;;;5117976;28;20449;-86
2022/08/13 10:23:42;;;;;;;3.40;3.10;;;26.30;82.40;;;;;;5117768;28;20027;-84
2022/08/13 10:26:08;;;;;;;3.72;3.25;;;26.40;82.70;;;;;;5118093;28;20043;-84
2022/08/13 10:28:36;;;;;;;3.50;3.20;;;26.50;82.30;;;;;;5117810;28;20477;-84
2022/08/13 10:31:07;;;;;;;5.40;3.38;;;26.70;82.00;;;;;;5116616;28;20035;-84
2022/08/13 10:33:33;;;;;;;6.45;3.92;;;26.70;81.90;;;;;;5117727;28;20051;-84
2022/08/13 10:35:59;;;;;;;4.88;3.70;;;26.80;80.80;;;;;;5116202;28;20043;-84
2022/08/13 10:38:28;;;;;;;4.82;3.75;;;26.80;82.00;;;;;;5116035;28;20051;-84
2022/08/13 10:40:54;;;;;;;7.85;3.72;;;26.80;81.50;;;;;;5113999;28;20020;-83
2022/08/13 10:43:21;;;;;;;3.47;3.17;;;26.80;81.60;;;;;;5112777;28;20019;-84
2022/08/13 10:45:47;;;;;;;8.20;3.25;;;26.80;81.40;;;;;;5112443;28;20108;-85
2022/08/13 10:48:13;;;;;;;4.70;3.00;;;26.80;81.30;;;;;;5111609;28;20085;-84
2022/08/13 10:50:40;;;;;;;3.30;2.88;;;26.90;81.00;;;;;;5112856;28;20032;-84
2022/08/13 10:53:06;;;;;;;3.50;3.20;;;26.90;81.50;;;;;;5112834;27;20028;-84
2022/08/13 10:55:35;;;;;;;4.32;3.92;;;27.00;81.00;;;;;;5110905;28;20082;-83
2022/08/13 10:58:14;;;;;;;5.68;3.28;;;26.80;81.40;;;;;;5112908;28;20023;-84
2022/08/13 11:00:39;;;;;;;3.80;3.42;;;26.70;81.50;;;;;;5110972;28;20032;-84
2022/08/13 11:03:05;;;;;;;7.28;3.10;;;26.70;82.90;;;;;;5110881;28;20030;-84
2022/08/13 11:05:30;;;;;;;3.13;2.83;;;26.70;82.40;;;;;;5111738;28;20020;-84
2022/08/13 11:07:56;;;;;;;4.07;2.97;;;26.70;82.60;;;;;;5112485;28;20038;-84
2022/08/13 11:10:22;;;;;;;6.07;3.28;;;26.80;81.50;;;;;;5112615;28;20034;-85
2022/08/13 11:12:51;;;;;;;3.42;3.05;;;26.80;81.60;;;;;;5112288;28;20063;-85
2022/08/13 11:15:20;;;;;;;3.83;3.53;;;26.90;81.10;;;;;;5112108;28;20034;-85
2022/08/13 11:17:50;;;;;;;3.80;3.17;;;27.00;81.40;;;;;;5111900;28;20030;-85
2022/08/13 11:20:19;;;;;;;4.05;3.40;;;27.10;81.80;;;;;;5110892;28;20032;-85
2022/08/13 11:22:55;;;;;;;4.35;3.70;;;27.20;81.60;;;;;;5110627;28;20466;-86
2022/08/13 11:25:23;;;;;;;4.72;3.47;;;27.50;80.20;;;;;;5112004;28;20107;-85
2022/08/13 11:27:49;;;;;;;7.03;3.67;;;27.70;78.70;;;;;;5111981;28;20629;-85
2022/08/13 11:30:16;;;;;;;4.35;3.30;;;27.80;78.40;;;;;;5112644;28;20149;-84
2022/08/13 11:32:42;;;;;;;4.05;3.60;;;28.00;79.10;;;;;;5111550;28;20035;-85
2022/08/13 11:35:09;;;;;;;4.75;3.35;;;28.20;78.00;;;;;;5112183;28;20026;-85
2022/08/13 11:37:35;;;;;;;14.80;3.58;;;28.20;77.30;;;;;;5111771;28;20034;-84
2022/08/13 11:40:03;;;;;;;4.78;3.25;;;28.20;78.50;;;;;;5111012;28;20144;-85
2022/08/13 11:42:29;;;;;;;5.20;3.67;;;28.20;78.30;;;;;;5111446;28;20469;-84
2022/08/13 11:44:55;;;;;;;3.97;3.58;;;28.10;79.10;;;;;;5111690;28;20560;-84
2022/08/13 11:47:20;;;;;;;3.53;3.20;;;28.10;79.80;;;;;;5111871;28;20098;-84
2022/08/13 11:49:46;;;;;;;6.03;3.35;;;28.10;80.20;;;;;;5112160;28;20030;-85
2022/08/13 11:52:11;;;;;;;4.32;3.35;;;28.10;78.80;;;;;;5112249;28;20027;-85
2022/08/13 11:54:36;;;;;;;5.28;3.45;;;28.20;78.00;;;;;;5112015;28;20065;-85
2022/08/13 11:57:05;;;;;;;3.58;3.17;;;28.20;77.90;;;;;;5111240;28;20031;-85
2022/08/13 11:59:31;;;;;;;4.70;3.08;;;28.20;77.00;;;;;;5111925;28;20023;-85
2022/08/13 12:01:56;;;;;;;3.65;3.17;;;28.30;76.60;;;;;;5111425;28;20038;-85
2022/08/13 12:04:22;;;;;;;7.07;3.25;;;28.10;77.80;;;;;;5110633;28;20035;-85
2022/08/13 12:06:47;;;;;;;6.25;3.65;;;28.20;77.70;;;;;;5109884;28;20042;-85
2022/08/13 12:09:13;;;;;;;4.00;3.55;;;28.30;78.50;;;;;;5112167;28;20116;-85
2022/08/13 12:11:38;;;;;;;4.45;3.83;;;28.40;77.80;;;;;;5112552;28;20065;-85
2022/08/13 12:14:04;;;;;;;6.10;3.22;;;28.40;76.40;;;;;;5113942;28;20032;-83
2022/08/13 12:16:29;;;;;;;4.10;3.33;;;28.30;75.80;;;;;;5113807;28;20431;-84
2022/08/13 12:18:55;;;;;;;4.20;3.50;;;28.30;77.00;;;;;;5113915;28;20020;-84
2022/08/13 12:21:20;;;;;;;8.35;4.13;;;28.20;76.30;;;;;;5113640;28;20039;-84
2022/08/13 12:23:46;;;;;;;6.07;3.78;;;28.20;77.50;;;;;;5112441;28;20093;-83
2022/08/13 12:26:11;;;;;;;3.60;3.30;;;28.20;77.70;;;;;;5112331;28;20403;-85
2022/08/13 12:28:37;;;;;;;5.40;3.40;;;28.10;76.70;;;;;;5112229;28;20381;-84
2022/08/13 12:31:07;;;;;;;5.55;3.55;;;28.10;77.40;;;;;;5112002;28;20023;-84
2022/08/13 12:33:35;;;;;;;5.60;3.38;;;28.00;77.30;;;;;;5112798;28;20023;-84
2022/08/13 12:36:00;;;;;;;3.20;2.90;;;27.90;77.50;;;;;;5110413;28;20031;-84
2022/08/13 12:38:27;;;;;;;6.63;3.40;;;27.90;77.80;;;;;;5120693;28;20027;-85
2022/08/13 12:40:53;;;;;;;5.45;3.47;;;27.80;77.80;;;;;;5121780;28;20028;-83
2022/08/13 12:43:18;;;;;;;4.70;3.70;;;27.80;77.90;;;;;;5123957;28;20038;-85
2022/08/13 12:45:45;;;;;;;4.07;3.60;;;27.70;78.10;;;;;;5123994;28;20038;-83
2022/08/13 12:48:17;;;;;;;4.40;3.42;;;27.60;79.40;;;;;;5124680;28;20024;-85
2022/08/13 12:50:45;;;;;;;6.18;4.15;;;27.50;78.10;;;;;;5124404;28;20035;-85
2022/08/13 12:53:11;;;;;;;4.25;3.40;;;27.40;78.30;;;;;;5123433;28;20066;-85
2022/08/13 12:55:38;;;;;;;4.32;3.45;;;27.30;78.60;;;;;;5121231;28;20024;-83
2022/08/13 12:58:15;;;;;;;3.72;3.33;;;27.40;79.20;;;;;;5123247;28;20047;-84
2022/08/13 13:00:41;;;;;;;6.80;3.80;;;27.50;78.60;;;;;;5112389;28;20019;-85
2022/08/13 13:03:07;;;;;;;4.38;3.75;;;27.50;78.50;;;;;;5111245;28;20031;-83
2022/08/13 13:05:32;;;;;;;3.67;3.22;;;27.60;79.00;;;;;;5110431;28;20076;-84
2022/08/13 13:07:58;;;;;;;7.68;3.17;;;27.60;78.10;;;;;;5111680;28;20104;-86